createdAt,value
2018-12-08T00:01:04.568Z,76.64
2018-12-08T00:06:08.828Z,76.93
2018-12-08T00:11:11.709Z,77.22
2018-12-08T00:16:14.620Z,77.67
2018-12-08T00:21:17.585Z,77.72
2018-12-08T00:26:20.363Z,77.26
2018-12-08T00:31:40.621Z,77.30
2018-12-08T00:36:43.927Z,76.81
2018-12-08T00:41:46.796Z,75.54
2018-12-08T00:46:49.645Z,74.52
2018-12-08T00:51:52.396Z,74.49
2018-12-08T00:56:55.364Z,74.47
2018-12-08T01:01:58.257Z,74.54
2018-12-08T01:07:01.769Z,74.75
2018-12-08T01:12:04.809Z,74.42
2018-12-08T01:17:07.722Z,74.81
2018-12-08T01:22:10.655Z,74.31
2018-12-08T01:27:13.440Z,74.44
2018-12-08T01:32:16.343Z,74.45
2018-12-08T01:37:19.188Z,74.60
2018-12-08T01:42:22.065Z,74.48
2018-12-08T01:47:25.027Z,74.23
2018-12-08T01:52:27.917Z,75.03
2018-12-08T01:57:30.857Z,74.72
2018-12-08T02:02:34.085Z,74.52
2018-12-08T02:07:37.159Z,74.07
2018-12-08T02:12:40.036Z,74.09
2018-12-08T02:17:42.809Z,74.06
2018-12-08T02:22:45.464Z,73.58
2018-12-08T02:27:48.267Z,73.50
2018-12-08T02:32:51.206Z,72.95
2018-12-08T02:37:54.060Z,72.61
2018-12-08T02:42:56.805Z,72.11
2018-12-08T02:47:59.780Z,72.29
2018-12-08T02:53:02.824Z,71.96
2018-12-08T02:58:05.726Z,71.52
2018-12-08T03:03:08.645Z,71.11
2018-12-08T03:08:11.329Z,71.58
2018-12-08T03:13:14.902Z,71.35
2018-12-08T03:18:17.802Z,70.50
2018-12-08T03:23:20.661Z,70.72
2018-12-08T03:28:23.754Z,70.39
2018-12-08T03:33:26.636Z,70.53
2018-12-08T03:38:29.447Z,69.85
2018-12-08T03:43:32.370Z,70.03
2018-12-08T03:48:35.469Z,69.88
2018-12-08T03:53:38.324Z,68.99
2018-12-08T03:58:41.093Z,68.52
2018-12-08T04:03:44.031Z,68.39
2018-12-08T04:08:46.913Z,68.44
2018-12-08T04:13:49.620Z,68.53
2018-12-08T04:18:53.034Z,68.69
2018-12-08T04:23:55.753Z,68.15
2018-12-08T04:28:58.529Z,67.55
2018-12-08T04:34:01.309Z,67.43
2018-12-08T04:39:06.501Z,67.41
2018-12-08T04:44:10.677Z,67.60
2018-12-08T04:49:13.574Z,67.51
2018-12-08T04:54:16.569Z,67.58
2018-12-08T04:59:19.324Z,67.20
2018-12-08T05:04:22.141Z,67.52
2018-12-08T05:09:24.833Z,67.40
2018-12-08T05:14:27.644Z,67.85
2018-12-08T05:19:30.508Z,68.04
2018-12-08T05:24:33.492Z,68.13
2018-12-08T05:29:36.392Z,68.55
2018-12-08T05:34:39.434Z,68.67
2018-12-08T05:39:42.160Z,68.40
2018-12-08T05:44:45.326Z,68.24
2018-12-08T05:49:48.222Z,68.50
2018-12-08T05:54:50.998Z,68.05
2018-12-08T05:59:53.923Z,68.24
2018-12-08T06:04:56.814Z,67.82
2018-12-08T06:15:02.093Z,68.08
2018-12-08T06:20:05.696Z,67.99
2018-12-08T06:25:19.279Z,67.43
2018-12-08T06:30:22.384Z,67.54
2018-12-08T06:35:25.163Z,67.29
2018-12-08T06:40:29.258Z,66.79
2018-12-08T06:45:32.432Z,67.01
2018-12-08T06:50:35.420Z,67.54
2018-12-08T06:55:38.221Z,67.05
2018-12-08T07:00:41.116Z,66.94
2018-12-08T07:05:43.903Z,67.01
2018-12-08T07:10:46.766Z,66.79
2018-12-08T07:15:49.509Z,67.12
2018-12-08T07:20:52.350Z,66.59
2018-12-08T07:25:55.324Z,67.06
2018-12-08T07:30:58.191Z,66.49
2018-12-08T07:36:00.955Z,66.89
2018-12-08T07:41:03.808Z,66.71
2018-12-08T07:46:06.868Z,66.93
2018-12-08T07:51:09.756Z,66.06
2018-12-08T07:56:12.759Z,66.73
2018-12-08T08:01:15.769Z,66.68
2018-12-08T08:06:18.736Z,66.12
2018-12-08T08:11:21.810Z,66.54
2018-12-08T08:16:24.760Z,65.74
2018-12-08T08:21:27.682Z,66.24
2018-12-08T08:26:30.652Z,66.26
2018-12-08T08:31:33.521Z,66.21
2018-12-08T08:36:36.487Z,65.86
2018-12-08T08:41:39.140Z,66.40
2018-12-08T08:46:42.075Z,66.18
2018-12-08T08:51:45.100Z,66.08
2018-12-08T08:56:47.737Z,66.03
2018-12-08T09:01:50.584Z,66.00
2018-12-08T09:06:53.552Z,65.84
2018-12-08T09:11:56.500Z,65.63
2018-12-08T09:16:59.420Z,65.33
2018-12-08T09:22:05.252Z,65.46
2018-12-08T09:27:08.226Z,64.94
2018-12-08T09:32:11.267Z,64.66
2018-12-08T09:37:14.201Z,64.79
2018-12-08T09:42:17.191Z,64.61
2018-12-08T09:47:20.120Z,65.48
2018-12-08T09:52:24.462Z,65.49
2018-12-08T09:57:27.286Z,65.44
2018-12-08T10:02:30.144Z,64.97
2018-12-08T10:07:32.933Z,64.10
2018-12-08T10:12:35.742Z,63.50
2018-12-08T10:17:38.540Z,63.98
2018-12-08T10:22:41.385Z,63.99
2018-12-08T10:27:44.309Z,63.81
2018-12-08T10:32:47.123Z,63.43
2018-12-08T10:37:49.998Z,62.67
2018-12-08T10:42:52.800Z,63.30
2018-12-08T10:47:55.472Z,63.48
2018-12-08T10:52:59.131Z,63.58
2018-12-08T10:58:01.829Z,63.16
2018-12-08T11:03:10.604Z,63.25
2018-12-08T11:08:13.319Z,64.07
2018-12-08T11:13:16.099Z,63.45
2018-12-08T11:18:19.111Z,63.47
2018-12-08T11:23:21.942Z,63.36
2018-12-08T11:28:24.792Z,63.25
2018-12-08T11:33:27.693Z,62.73
2018-12-08T11:38:30.498Z,62.73
2018-12-08T11:43:33.427Z,62.86
2018-12-08T12:11:39.133Z,63.65
2018-12-08T12:16:43.295Z,63.42
2018-12-08T12:21:46.141Z,62.94
2018-12-08T12:26:49.004Z,63.16
2018-12-08T12:31:51.889Z,62.55
2018-12-08T12:36:54.714Z,62.40
2018-12-08T12:41:57.572Z,62.46
2018-12-08T12:47:00.475Z,62.57
2018-12-08T12:52:03.340Z,62.29
2018-12-08T12:57:06.169Z,62.44
2018-12-08T13:02:09.899Z,62.13
2018-12-08T13:07:12.804Z,61.32
2018-12-08T13:12:15.816Z,61.65
2018-12-08T13:17:18.620Z,61.91
2018-12-08T13:22:21.232Z,61.72
2018-12-08T13:27:24.101Z,61.52
2018-12-08T13:32:26.870Z,61.90
2018-12-08T13:37:29.667Z,62.13
2018-12-08T13:42:32.616Z,61.54
2018-12-08T13:47:35.596Z,61.40
2018-12-08T13:52:38.356Z,62.34
2018-12-08T13:57:41.184Z,63.42
2018-12-08T14:02:43.908Z,65.16
2018-12-08T14:07:46.674Z,66.29
2018-12-08T14:12:49.694Z,66.84
2018-12-08T14:17:52.531Z,67.98
2018-12-08T14:22:55.585Z,69.39
2018-12-08T14:27:58.540Z,70.21
2018-12-08T14:33:01.302Z,71.25
2018-12-08T14:38:04.261Z,72.22
2018-12-08T14:43:07.116Z,73.03
2018-12-08T14:48:09.987Z,73.63
2018-12-08T14:53:12.813Z,74.03
2018-12-08T14:58:15.672Z,73.98
2018-12-08T15:05:25.008Z,74.25
2018-12-08T15:10:27.953Z,74.55
2018-12-08T15:15:30.903Z,73.91
2018-12-08T15:20:33.729Z,74.36
2018-12-08T15:25:36.599Z,74.78
2018-12-08T15:30:39.399Z,75.25
2018-12-08T15:35:42.301Z,75.38
2018-12-08T15:40:45.261Z,75.74
2018-12-08T15:45:48.356Z,76.16
2018-12-08T15:50:51.325Z,75.59
2018-12-08T15:55:54.160Z,75.43
2018-12-08T16:00:56.807Z,75.14
2018-12-08T16:06:00.020Z,74.35
2018-12-08T16:11:02.807Z,73.42
2018-12-08T16:16:05.570Z,73.98
2018-12-08T16:21:08.670Z,73.17
2018-12-08T16:26:11.631Z,72.99
2018-12-08T16:31:14.427Z,72.17
2018-12-08T16:36:17.435Z,71.08
2018-12-08T16:41:20.324Z,70.50
2018-12-08T16:46:23.152Z,70.53
2018-12-08T16:51:26.024Z,70.38
2018-12-08T16:56:28.861Z,70.14
2018-12-08T17:01:31.819Z,69.07
2018-12-08T17:06:34.809Z,68.84
2018-12-08T17:11:37.655Z,68.67
2018-12-08T17:16:40.543Z,68.79
2018-12-08T17:21:43.394Z,68.15
2018-12-08T17:26:46.264Z,68.05
2018-12-08T17:31:49.188Z,67.79
2018-12-08T17:36:51.964Z,67.65
2018-12-08T17:41:54.904Z,67.09
2018-12-08T17:46:57.882Z,66.67
2018-12-08T17:52:00.852Z,66.77
2018-12-08T17:57:03.687Z,66.46
2018-12-08T18:02:06.652Z,66.26
2018-12-08T18:07:09.468Z,65.58
2018-12-08T18:12:12.436Z,65.34
2018-12-08T18:17:15.321Z,65.58
2018-12-08T18:22:18.433Z,65.63
2018-12-08T18:27:21.504Z,65.98
2018-12-08T18:32:24.387Z,65.19
2018-12-08T18:37:27.220Z,65.40
2018-12-08T18:42:30.063Z,65.66
2018-12-08T18:47:33.026Z,65.46
2018-12-08T18:52:36.082Z,65.38
2018-12-08T18:57:38.836Z,65.48
2018-12-08T19:02:41.713Z,65.55
2018-12-08T19:07:44.605Z,65.24
2018-12-08T19:12:47.577Z,65.52
2018-12-08T19:17:50.300Z,65.23
2018-12-08T19:22:53.140Z,64.64
2018-12-08T19:27:55.968Z,65.04
2018-12-08T19:32:58.795Z,65.22
2018-12-08T19:38:01.544Z,64.86
2018-12-08T19:43:04.281Z,64.98
2018-12-08T19:48:07.149Z,64.81
2018-12-08T19:53:09.965Z,64.66
2018-12-08T19:58:12.812Z,64.94
2018-12-08T20:03:15.695Z,65.01
2018-12-08T20:08:18.428Z,64.88
2018-12-08T20:13:21.164Z,65.34
2018-12-08T20:18:23.826Z,65.10
2018-12-08T20:23:26.715Z,65.29
2018-12-08T20:28:29.419Z,65.62
2018-12-08T20:33:32.068Z,64.84
2018-12-08T20:38:34.931Z,65.37
2018-12-08T20:43:37.612Z,65.67
2018-12-08T20:48:40.475Z,65.54
2018-12-08T20:53:43.337Z,65.48
2018-12-08T20:58:46.227Z,66.07
2018-12-08T21:03:48.908Z,66.25
2018-12-08T21:08:51.653Z,66.54
2018-12-08T21:13:54.458Z,67.30
2018-12-08T21:18:57.952Z,67.43
2018-12-08T21:24:01.009Z,68.19
2018-12-08T21:29:05.000Z,68.10
2018-12-08T21:34:07.885Z,68.65
2018-12-08T21:39:10.816Z,68.86
2018-12-08T21:44:13.684Z,69.03
2018-12-08T21:49:16.542Z,69.27
2018-12-08T21:54:19.324Z,69.04
2018-12-08T21:59:22.047Z,69.20
2018-12-08T22:04:24.600Z,69.24
2018-12-08T22:09:27.399Z,69.22
2018-12-08T22:14:30.257Z,69.54
2018-12-08T22:19:33.043Z,69.16
2018-12-08T22:24:35.792Z,69.18
2018-12-08T22:29:38.671Z,69.29
2018-12-08T22:34:41.410Z,69.08
2018-12-08T22:39:44.283Z,69.25
2018-12-08T22:44:47.200Z,69.18
2018-12-08T22:49:49.932Z,69.02
2018-12-08T22:54:52.671Z,69.16
2018-12-08T22:59:55.543Z,69.13
2018-12-08T23:04:58.293Z,69.15
2018-12-08T23:10:01.231Z,70.13
2018-12-08T23:15:04.392Z,70.58
2018-12-08T23:20:07.429Z,71.71
2018-12-08T23:25:10.256Z,71.95
2018-12-08T23:30:16.005Z,72.53
2018-12-08T23:35:19.029Z,72.47
2018-12-08T23:40:21.857Z,72.31
2018-12-08T23:45:24.699Z,72.58
2018-12-08T23:50:27.632Z,72.76
2018-12-08T23:55:30.512Z,72.84
